Time;durP1;ratioP1;P1;durP2;ratioP2;P2;SDS_P1;SDS_P2;PMS_P1;PMS_P2;Temp;Humidity;BMP_temperature;BMP_pressure;BME280_temperature;BME280_humidity;BME280_pressure;Samples;Min_cycle;Max_cycle;Signal;HPM_P1;HPM_P2
2022/12/31 00:00:20;;;;;;;4.70;2.58;;;;;;;8.83;100.00;99946.31;4988584;28;20503;-64
2022/12/31 00:02:47;;;;;;;3.95;2.60;;;;;;;8.83;100.00;99959.44;4988741;28;20052;-61
2022/12/31 00:05:15;;;;;;;4.00;2.30;;;;;;;8.85;100.00;99954.91;4987591;28;20050;-65
2022/12/31 00:07:42;;;;;;;3.30;1.92;;;;;;;8.90;100.00;99950.22;4993251;28;20058;-64
2022/12/31 00:10:08;;;;;;;6.10;4.07;;;;;;;8.94;100.00;99940.38;4985097;28;20040;-63
2022/12/31 00:12:35;;;;;;;3.58;2.50;;;;;;;8.90;100.00;99980.88;4989331;28;20046;-64
2022/12/31 00:15:03;;;;;;;2.85;1.90;;;;;;;8.89;100.00;99961.66;4991272;28;20042;-64
2022/12/31 00:17:30;;;;;;;3.35;2.17;;;;;;;8.90;100.00;99968.59;4989036;28;20890;-65
2022/12/31 00:19:57;;;;;;;2.97;1.95;;;;;;;8.91;100.00;99962.41;4989414;28;20146;-65
2022/12/31 00:22:24;;;;;;;3.38;2.00;;;;;;;8.92;100.00;99966.75;4992433;28;20065;-63
2022/12/31 00:24:51;;;;;;;2.08;1.40;;;;;;;8.94;100.00;99972.72;4983774;28;20073;-63
2022/12/31 00:27:21;;;;;;;3.25;1.48;;;;;;;8.96;100.00;99978.75;4986559;28;20058;-64
2022/12/31 00:29:48;;;;;;;2.95;1.60;;;;;;;8.94;100.00;99977.13;4990078;28;20050;-63
2022/12/31 00:32:15;;;;;;;3.00;1.50;;;;;;;8.94;100.00;99985.00;4986505;28;20533;-64
2022/12/31 00:34:42;;;;;;;2.65;1.40;;;;;;;8.98;100.00;99981.25;4983007;28;20104;-63
2022/12/31 00:37:09;;;;;;;6.40;2.10;;;;;;;8.91;100.00;99990.44;4984877;28;20066;-63
2022/12/31 00:39:36;;;;;;;4.70;1.77;;;;;;;8.89;100.00;99987.91;4989243;28;20058;-61
2022/12/31 00:42:04;;;;;;;3.92;1.95;;;;;;;8.88;100.00;99983.63;4987521;28;20050;-64
2022/12/31 00:44:31;;;;;;;2.38;1.88;;;;;;;8.88;100.00;99983.63;4987413;28;20054;-61
2022/12/31 00:46:58;;;;;;;4.95;1.77;;;;;;;8.88;100.00;99973.13;4985782;28;20050;-63
2022/12/31 00:49:25;;;;;;;4.85;1.52;;;;;;;8.88;100.00;99970.50;4985019;28;20050;-63
2022/12/31 00:51:52;;;;;;;3.53;1.75;;;;;;;8.83;100.00;99972.56;4991431;28;20212;-62
2022/12/31 00:54:19;;;;;;;3.17;1.67;;;;;;;8.86;100.00;99970.56;4987472;28;20056;-63
2022/12/31 00:56:46;;;;;;;3.63;1.45;;;;;;;8.90;100.00;99973.00;4988251;28;20127;-63
2022/12/31 00:59:14;;;;;;;3.20;1.77;;;;;;;8.90;100.00;99986.13;4991483;28;20137;-62
2022/12/31 01:01:41;;;;;;;3.50;1.90;;;;;;;8.90;100.00;99986.97;4981844;28;20055;-62
2022/12/31 01:04:12;;;;;;;2.67;1.70;;;;;;;8.85;100.00;100000.38;4990440;28;20202;-62
2022/12/31 01:06:40;;;;;;;3.20;1.98;;;;;;;8.87;100.00;100001.16;4990875;28;20054;-60
2022/12/31 01:09:08;;;;;;;4.80;2.15;;;;;;;8.87;100.00;100018.66;4985512;28;20129;-62
2022/12/31 01:11:36;;;;;;;3.80;2.20;;;;;;;8.88;100.00;100005.44;5005080;28;20145;-63
2022/12/31 01:14:11;;;;;;;3.60;1.70;;;;;;;8.95;100.00;100016.41;4986473;28;20076;-63
2022/12/31 01:16:41;;;;;;;4.03;2.00;;;;;;;8.94;100.00;100016.50;4985846;28;20050;-63
2022/12/31 01:19:11;;;;;;;4.50;2.35;;;;;;;8.95;100.00;100023.44;4988283;28;20047;-62
2022/12/31 01:21:39;;;;;;;2.83;1.70;;;;;;;8.96;100.00;100025.13;4991038;28;20060;-62
2022/12/31 01:24:08;;;;;;;2.53;1.65;;;;;;;8.97;100.00;100021.59;4983622;28;20055;-60
2022/12/31 01:26:36;;;;;;;2.70;1.85;;;;;;;8.98;100.00;100015.38;4991654;28;20057;-63
2022/12/31 01:29:04;;;;;;;2.80;1.40;;;;;;;9.01;100.00;100028.31;4988002;28;20053;-65
2022/12/31 01:31:32;;;;;;;2.55;1.48;;;;;;;9.05;100.00;100030.66;4991694;28;20059;-61
2022/12/31 01:34:00;;;;;;;2.22;1.13;;;;;;;9.06;100.00;100021.84;4986633;28;20062;-64
2022/12/31 01:36:30;;;;;;;1.70;1.05;;;;;;;9.07;100.00;100025.31;4987878;28;20407;-62
2022/12/31 01:38:59;;;;;;;2.38;1.27;;;;;;;9.10;100.00;100030.38;4985879;28;20146;-61
2022/12/31 01:41:32;;;;;;;1.70;1.10;;;;;;;9.12;100.00;100031.13;4988302;28;20382;-62
2022/12/31 01:44:21;;;;;;;1.92;0.98;;;;;;;9.13;100.00;100044.13;4990051;28;20058;-63
2022/12/31 01:46:52;;;;;;;1.77;1.20;;;;;;;9.19;100.00;100042.09;4986374;28;20057;-63
2022/12/31 01:49:23;;;;;;;2.25;1.20;;;;;;;9.21;100.00;100037.59;4983191;28;20070;-63
2022/12/31 01:52:03;;;;;;;1.13;0.80;;;;;;;9.25;100.00;100046.97;4989888;28;20161;-63
2022/12/31 01:54:33;;;;;;;1.88;1.10;;;;;;;9.29;100.00;100040.56;4992441;28;20145;-62
2022/12/31 01:57:02;;;;;;;1.73;1.05;;;;;;;9.33;100.00;100052.56;4990354;28;20053;-64
2022/12/31 01:59:29;;;;;;;3.67;1.27;;;;;;;9.39;100.00;100052.19;4994986;28;20058;-64
2022/12/31 02:01:58;;;;;;;2.20;1.42;;;;;;;9.42;100.00;100046.75;4994041;28;20061;-63
2022/12/31 02:04:26;;;;;;;2.17;1.02;;;;;;;9.48;100.00;100033.22;4990092;28;21205;-64
2022/12/31 02:06:59;;;;;;;1.10;0.82;;;;;;;9.50;100.00;100035.72;4990083;28;20052;-63
2022/12/31 02:09:27;;;;;;;1.63;0.90;;;;;;;9.56;100.00;100045.88;4992441;28;20385;-62
2022/12/31 02:11:54;;;;;;;2.65;0.70;;;;;;;9.60;100.00;100042.94;4987543;28;20066;-63
2022/12/31 02:14:42;;;;;;;1.40;0.90;;;;;;;9.64;100.00;100052.31;4989226;28;20439;-62
2022/12/31 02:17:33;;;;;;;2.33;0.70;;;;;;;9.73;100.00;100057.94;4992139;28;20064;-64
2022/12/31 02:20:25;;;;;;;0.88;0.60;;;;;;;9.81;100.00;100053.00;4996113;28;20068;-64
2022/12/31 02:23:14;;;;;;;1.23;0.70;;;;;;;9.84;100.00;100060.69;4990895;28;20057;-63
2022/12/31 02:26:17;;;;;;;1.10;0.60;;;;;;;9.92;100.00;100071.56;4998490;28;20057;-62
2022/12/31 02:29:15;;;;;;;1.45;0.98;;;;;;;9.93;100.00;100065.34;4995888;28;20529;-61
2022/12/31 02:31:46;;;;;;;0.60;0.50;;;;;;;9.96;100.00;100061.69;4989935;28;20062;-64
2022/12/31 02:34:30;;;;;;;1.38;0.90;;;;;;;10.00;100.00;100058.75;4997641;28;20141;-64
2022/12/31 02:36:59;;;;;;;2.35;0.80;;;;;;;10.04;100.00;100054.13;4993285;28;20146;-62
2022/12/31 02:39:28;;;;;;;1.45;1.00;;;;;;;10.07;100.00;100052.13;4984993;28;20137;-65
2022/12/31 02:41:55;;;;;;;2.65;1.30;;;;;;;10.05;100.00;100048.78;4987828;28;20068;-63
2022/12/31 02:44:30;;;;;;;2.85;1.30;;;;;;;10.09;100.00;100039.75;4994917;28;20168;-63
2022/12/31 02:47:21;;;;;;;3.17;1.30;;;;;;;10.10;100.00;100048.47;4991926;28;20518;-64
2022/12/31 02:50:12;;;;;;;2.38;1.13;;;;;;;10.11;100.00;100050.16;4992409;28;20048;-64
2022/12/31 02:53:17;;;;;;;2.45;1.60;;;;;;;10.11;100.00;100040.47;4998226;28;20710;-62
2022/12/31 02:56:08;;;;;;;2.03;1.48;;;;;;;10.13;100.00;100045.63;4988828;28;20133;-63
2022/12/31 03:04:47;;;;;;;3.10;1.30;;;;;;;10.12;100.00;100050.03;4992232;28;20053;-63
2022/12/31 03:07:08;;;;;;;2.95;1.92;;;;;;;10.18;100.00;100048.81;4991320;28;20572;-63
2022/12/31 03:09:36;;;;;;;3.13;1.75;;;;;;;10.16;100.00;100048.06;5001717;28;20077;-60
2022/12/31 03:14:50;;;;;;;6.43;1.80;;;;;;;10.15;100.00;100034.06;4998139;28;20088;-63
2022/12/31 03:17:18;;;;;;;1.45;1.10;;;;;;;10.19;100.00;100041.75;5001361;28;20060;-61
2022/12/31 03:22:32;;;;;;;2.30;1.10;;;;;;;10.12;100.00;100044.78;4990485;28;20525;-64
2022/12/31 03:28:02;;;;;;;1.50;0.82;;;;;;;10.11;100.00;100032.59;4993322;28;20137;-64
2022/12/31 03:30:30;;;;;;;1.95;0.90;;;;;;;10.01;100.00;100046.47;4996105;28;20054;-64
2022/12/31 03:32:58;;;;;;;1.58;1.10;;;;;;;9.96;100.00;100028.34;4995076;28;20062;-63
2022/12/31 03:35:27;;;;;;;0.70;0.60;;;;;;;9.97;100.00;100035.28;4985294;28;20582;-64
2022/12/31 03:37:55;;;;;;;1.05;0.73;;;;;;;10.01;100.00;100036.78;4993792;28;20061;-62
2022/12/31 03:40:24;;;;;;;1.42;0.68;;;;;;;10.01;100.00;100034.16;4993258;28;20511;-62
2022/12/31 03:42:51;;;;;;;1.55;0.73;;;;;;;10.00;100.00;100045.63;4994003;28;20080;-64
2022/12/31 03:45:19;;;;;;;0.70;0.60;;;;;;;9.97;100.00;100030.03;4988021;28;20046;-64
2022/12/31 03:47:46;;;;;;;1.65;0.70;;;;;;;9.98;100.00;100028.25;4991224;28;20057;-64
2022/12/31 03:50:15;;;;;;;0.65;0.60;;;;;;;10.01;100.00;100007.84;4988080;28;20047;-64
2022/12/31 03:52:43;;;;;;;0.73;0.60;;;;;;;10.08;100.00;100008.28;4982329;28;20058;-61
2022/12/31 03:55:10;;;;;;;0.85;0.50;;;;;;;10.09;100.00;100016.06;4988138;28;20065;-64
2022/12/31 03:57:38;;;;;;;0.57;0.40;;;;;;;10.07;100.00;100011.84;4986533;28;20058;-64
2022/12/31 04:00:08;;;;;;;2.15;0.60;;;;;;;10.07;100.00;100007.44;4986388;28;20085;-60
2022/12/31 04:02:35;;;;;;;0.88;0.57;;;;;;;10.12;100.00;99996.59;4987905;28;20084;-63
2022/12/31 04:05:03;;;;;;;1.55;0.60;;;;;;;10.13;100.00;99995.66;4990780;28;20078;-63
2022/12/31 04:07:30;;;;;;;1.45;0.77;;;;;;;10.12;100.00;100007.97;4987265;28;20903;-64
2022/12/31 04:09:57;;;;;;;1.05;0.65;;;;;;;10.13;100.00;99999.16;4987080;28;20069;-64
2022/12/31 04:12:25;;;;;;;0.90;0.55;;;;;;;10.15;100.00;100005.13;4989059;28;20054;-63
2022/12/31 04:14:52;;;;;;;1.30;0.73;;;;;;;10.21;100.00;100008.28;4986494;28;20052;-61
2022/12/31 04:17:20;;;;;;;0.50;0.43;;;;;;;10.26;100.00;100011.50;4988167;28;20052;-61
2022/12/31 04:19:47;;;;;;;1.40;0.40;;;;;;;10.26;100.00;100008.84;4993527;28;20046;-62
2022/12/31 04:22:14;;;;;;;0.90;0.50;;;;;;;10.26;100.00;100009.69;4989216;28;20044;-63
2022/12/31 04:24:42;;;;;;;0.93;0.40;;;;;;;10.31;100.00;100009.38;5000123;28;20050;-62
2022/12/31 04:27:10;;;;;;;0.75;0.57;;;;;;;10.37;100.00;100003.72;4986827;28;20056;-63
2022/12/31 04:29:38;;;;;;;0.95;0.60;;;;;;;10.38;100.00;99992.25;4990264;28;20042;-62
2022/12/31 04:32:07;;;;;;;1.65;0.57;;;;;;;10.39;100.00;100005.28;4982782;28;20157;-62
2022/12/31 04:34:34;;;;;;;0.40;0.40;;;;;;;10.46;100.00;100007.53;4991396;28;20100;-65
2022/12/31 04:37:02;;;;;;;0.50;0.50;;;;;;;10.47;100.00;100027.63;4988315;28;20149;-63
2022/12/31 04:39:29;;;;;;;1.20;0.50;;;;;;;10.48;100.00;100021.41;4992429;28;20049;-61
2022/12/31 04:41:56;;;;;;;5.20;0.60;;;;;;;10.49;100.00;100010.78;4982417;28;20062;-64
2022/12/31 04:44:23;;;;;;;1.65;0.82;;;;;;;10.52;100.00;100007.09;4993872;28;20042;-63
2022/12/31 04:46:51;;;;;;;1.15;0.68;;;;;;;10.51;100.00;100011.53;4988830;28;20465;-60
2022/12/31 04:49:18;;;;;;;1.73;0.50;;;;;;;10.56;100.00;99993.63;4989643;28;20595;-64
2022/12/31 04:51:45;;;;;;;1.73;0.60;;;;;;;10.57;100.00;99995.28;4988517;28;20149;-64
2022/12/31 04:54:12;;;;;;;1.05;0.70;;;;;;;10.58;100.00;99983.84;4986581;28;20129;-63
2022/12/31 04:56:40;;;;;;;1.65;0.65;;;;;;;10.57;100.00;99966.34;4982120;28;20137;-64
2022/12/31 04:59:08;;;;;;;1.05;0.63;;;;;;;10.60;100.00;99971.41;4985453;28;20447;-65
2022/12/31 05:01:37;;;;;;;0.65;0.32;;;;;;;10.66;100.00;99967.50;4982948;28;20137;-62
2022/12/31 05:04:04;;;;;;;1.15;0.50;;;;;;;10.65;100.00;99969.28;4981874;28;20052;-64
2022/12/31 05:06:32;;;;;;;0.30;0.30;;;;;;;10.73;100.00;99960.03;4987468;28;20122;-64
2022/12/31 05:08:59;;;;;;;1.70;1.15;;;;;;;10.74;100.00;99962.53;4990607;28;20124;-64
2022/12/31 05:11:26;;;;;;;1.20;0.50;;;;;;;10.79;100.00;99955.16;4987024;28;20050;-63
2022/12/31 05:13:54;;;;;;;1.08;0.60;;;;;;;10.81;100.00;99961.19;4989870;28;20467;-62
2022/12/31 05:16:21;;;;;;;5.22;1.05;;;;;;;10.83;100.00;99961.91;4989904;28;20064;-60
2022/12/31 05:18:48;;;;;;;1.45;0.68;;;;;;;10.86;100.00;99951.16;4991369;28;20058;-61
2022/12/31 05:21:19;;;;;;;0.52;0.40;;;;;;;10.86;100.00;99943.25;4986060;28;20145;-61
2022/12/31 05:23:47;;;;;;;0.80;0.40;;;;;;;10.89;100.00;99961.44;4991896;28;20616;-63
2022/12/31 05:26:15;;;;;;;0.57;0.40;;;;;;;10.92;100.00;99963.03;4997613;28;20137;-65
2022/12/31 05:28:42;;;;;;;0.88;0.40;;;;;;;10.93;100.00;99969.97;4992808;28;20143;-63
2022/12/31 05:31:10;;;;;;;2.47;0.60;;;;;;;10.97;100.00;99970.63;4994207;28;20064;-64
2022/12/31 05:33:37;;;;;;;1.33;0.52;;;;;;;11.01;100.00;99959.75;4992274;28;20142;-66
2022/12/31 05:36:04;;;;;;;1.42;0.50;;;;;;;11.05;100.00;99971.75;4992042;28;20152;-60
2022/12/31 05:38:32;;;;;;;0.30;0.30;;;;;;;11.04;100.00;99985.88;4988160;28;20054;-63
2022/12/31 05:41:00;;;;;;;0.50;0.50;;;;;;;11.05;100.00;99981.44;4992241;28;20054;-64
2022/12/31 05:43:28;;;;;;;3.00;0.55;;;;;;;11.06;100.00;99986.59;4999454;28;20605;-65
2022/12/31 05:45:55;;;;;;;3.28;0.60;;;;;;;11.06;100.00;99969.97;4995338;28;20062;-62
2022/12/31 05:48:23;;;;;;;1.50;0.40;;;;;;;11.04;100.00;99946.38;4993699;28;20056;-64
2022/12/31 05:50:50;;;;;;;1.27;0.70;;;;;;;11.04;100.00;99940.28;4992134;28;20081;-61
2022/12/31 05:53:17;;;;;;;0.40;0.40;;;;;;;11.02;100.00;99931.63;4991398;28;20595;-61
2022/12/31 05:55:46;;;;;;;0.50;0.43;;;;;;;11.02;100.00;99942.16;4991208;28;20185;-64
2022/12/31 05:58:14;;;;;;;2.00;0.50;;;;;;;10.99;100.00;99922.16;4990679;28;20597;-63
2022/12/31 06:00:41;;;;;;;1.67;0.50;;;;;;;11.02;100.00;99929.81;4989988;28;20049;-62
2022/12/31 06:03:09;;;;;;;0.73;0.47;;;;;;;11.09;100.00;99925.81;4990813;28;20046;-64
2022/12/31 06:05:41;;;;;;;1.20;0.55;;;;;;;11.13;100.00;99921.16;4990080;28;20535;-62
2022/12/31 06:08:10;;;;;;;2.05;0.73;;;;;;;11.13;100.00;99908.84;4989297;28;20046;-63
2022/12/31 06:10:38;;;;;;;2.45;1.08;;;;;;;11.18;100.00;99908.50;4988437;28;20053;-61
2022/12/31 06:13:05;;;;;;;2.15;1.10;;;;;;;11.17;100.00;99909.47;4996103;28;20062;-64
2022/12/31 06:15:36;;;;;;;3.33;0.70;;;;;;;11.18;100.00;99903.22;4994723;28;20133;-63
2022/12/31 06:18:03;;;;;;;2.33;0.98;;;;;;;11.20;100.00;99906.56;4986910;28;20503;-64
2022/12/31 06:20:30;;;;;;;2.17;0.60;;;;;;;11.19;100.00;99891.72;4979933;28;20073;-63
2022/12/31 06:22:58;;;;;;;1.80;0.95;;;;;;;11.21;100.00;99884.53;4992719;28;20141;-63
2022/12/31 06:25:26;;;;;;;1.90;0.90;;;;;;;11.26;100.00;99892.13;4986477;28;20077;-61
2022/12/31 06:27:53;;;;;;;1.75;0.47;;;;;;;11.27;100.00;99894.66;4990311;28;20054;-60
2022/12/31 06:30:20;;;;;;;0.50;0.50;;;;;;;11.29;100.00;99900.63;4989965;28;20061;-63
2022/12/31 06:32:47;;;;;;;0.90;0.50;;;;;;;11.28;100.00;99893.69;4992374;28;20061;-61
2022/12/31 06:35:15;;;;;;;0.70;0.50;;;;;;;11.29;100.00;99884.81;4990989;28;20049;-61
2022/12/31 06:37:42;;;;;;;0.68;0.57;;;;;;;11.29;100.00;99899.78;4991321;28;20057;-61
2022/12/31 06:40:10;;;;;;;0.52;0.40;;;;;;;11.30;100.00;99886.53;4988955;28;20056;-61
2022/12/31 06:42:37;;;;;;;1.25;0.60;;;;;;;11.37;100.00;99879.84;4987071;28;20133;-62
2022/12/31 06:45:04;;;;;;;0.77;0.43;;;;;;;11.40;100.00;99894.59;4985969;28;20082;-63
2022/12/31 06:47:32;;;;;;;1.90;0.70;;;;;;;11.43;100.00;99890.88;4984760;28;20817;-62
2022/12/31 06:49:59;;;;;;;0.68;0.40;;;;;;;11.45;100.00;99903.00;4983493;28;20057;-62
2022/12/31 06:52:26;;;;;;;1.25;0.50;;;;;;;11.47;100.00;99895.81;4988279;28;20094;-61
2022/12/31 06:54:53;;;;;;;0.77;0.57;;;;;;;11.53;100.00;99898.00;4992128;28;20590;-63
2022/12/31 06:57:22;;;;;;;0.73;0.50;;;;;;;11.59;100.00;99888.78;4987877;28;20128;-62
2022/12/31 06:59:49;;;;;;;0.68;0.45;;;;;;;11.65;100.00;99880.41;4987910;28;20065;-63
2022/12/31 07:02:47;;;;;;;0.38;0.38;;;;;;;11.70;100.00;99894.06;4982191;28;20042;-60
2022/12/31 07:05:36;;;;;;;0.57;0.52;;;;;;;11.76;100.00;99891.00;4987814;28;20046;-61
2022/12/31 07:08:21;;;;;;;1.63;0.65;;;;;;;11.84;100.00;99880.75;4990500;28;20159;-62
2022/12/31 07:11:01;;;;;;;1.02;0.60;;;;;;;11.88;100.00;99876.06;4987608;28;20549;-63
2022/12/31 07:14:04;;;;;;;0.30;0.30;;;;;;;11.94;100.00;99872.97;4987825;28;20452;-63
2022/12/31 07:17:03;;;;;;;1.17;0.50;;;;;;;11.99;100.00;99876.09;4987354;28;20740;-62
2022/12/31 07:19:51;;;;;;;1.05;0.30;;;;;;;12.01;100.00;99868.88;4985065;28;20428;-62
2022/12/31 07:22:24;;;;;;;0.65;0.57;;;;;;;12.05;100.00;99866.88;4984448;28;20531;-62
2022/12/31 07:24:51;;;;;;;1.35;0.43;;;;;;;12.08;100.00;99870.09;4988127;28;20065;-63
2022/12/31 07:27:37;;;;;;;1.35;0.63;;;;;;;12.14;100.00;99874.06;4993290;28;20077;-63
2022/12/31 07:30:16;;;;;;;0.90;0.43;;;;;;;12.20;100.00;99881.50;4987117;28;20490;-62
2022/12/31 07:33:08;;;;;;;0.40;0.38;;;;;;;12.25;100.00;99868.81;4991855;28;20145;-63
2022/12/31 07:35:35;;;;;;;3.55;0.75;;;;;;;12.31;100.00;99878.03;4989383;28;20065;-62
2022/12/31 07:38:17;;;;;;;0.82;0.50;;;;;;;12.34;100.00;99877.81;4987735;28;20050;-63
2022/12/31 07:41:03;;;;;;;1.02;0.50;;;;;;;12.37;100.00;99888.94;4985700;28;20056;-63
2022/12/31 07:44:23;;;;;;;0.60;0.40;;;;;;;12.45;100.00;99885.72;4984714;28;20157;-62
2022/12/31 07:46:55;;;;;;;1.38;0.40;;;;;;;12.53;100.00;99875.41;4903408;29;20139;-63
2022/12/31 07:49:24;;;;;;;1.00;0.50;;;;;;;12.58;100.00;99902.28;4974446;28;20620;-63
2022/12/31 07:51:52;;;;;;;0.47;0.47;;;;;;;12.67;100.00;99880.41;4985284;28;20054;-63
2022/12/31 07:54:19;;;;;;;1.02;0.45;;;;;;;12.74;100.00;99890.47;4991461;28;20161;-62
2022/12/31 07:56:47;;;;;;;0.93;0.60;;;;;;;12.78;100.00;99902.47;4985365;28;20533;-61
2022/12/31 08:00:00;;;;;;;1.05;0.40;;;;;;;12.80;100.00;99890.00;4989530;28;20050;-62
2022/12/31 08:02:38;;;;;;;0.73;0.40;;;;;;;12.84;100.00;99902.00;4977033;28;20050;-62
2022/12/31 08:05:32;;;;;;;0.93;0.50;;;;;;;12.91;100.00;99911.13;4983824;28;20054;-62
2022/12/31 08:08:25;;;;;;;9.27;0.50;;;;;;;13.00;100.00;99910.38;4987071;28;20563;-61
2022/12/31 08:10:52;;;;;;;0.60;0.40;;;;;;;13.00;100.00;99898.97;4948394;28;20088;-63
2022/12/31 08:13:20;;;;;;;0.60;0.50;;;;;;;13.06;100.00;99906.41;4988314;28;20086;-62
2022/12/31 08:15:48;;;;;;;0.70;0.40;;;;;;;13.09;100.00;99917.56;5005505;28;20054;-61
2022/12/31 08:18:15;;;;;;;0.40;0.40;;;;;;;13.14;100.00;99915.38;4987994;28;20058;-64
2022/12/31 08:20:56;;;;;;;0.77;0.47;;;;;;;13.15;100.00;99910.97;4988017;28;20138;-63
2022/12/31 08:23:32;;;;;;;4.82;0.60;;;;;;;13.22;100.00;99906.00;4989128;28;20122;-64
2022/12/31 08:26:14;;;;;;;3.08;0.60;;;;;;;13.25;100.00;99903.16;4990197;28;20076;-63
2022/12/31 08:28:53;;;;;;;1.48;0.55;;;;;;;13.32;100.00;99912.25;4990296;28;20057;-63
2022/12/31 08:31:22;;;;;;;1.85;0.80;;;;;;;13.36;100.00;99914.50;4988546;28;20061;-59
2022/12/31 08:34:05;;;;;;;1.02;0.57;;;;;;;13.40;100.00;99915.09;4987562;28;20042;-63
2022/12/31 08:36:44;;;;;;;0.43;0.32;;;;;;;13.42;100.00;99913.19;4989306;28;20190;-64
2022/12/31 08:39:47;;;;;;;1.38;0.65;;;;;;;13.52;100.00;99907.97;4987173;28;20321;-62
2022/12/31 08:42:40;;;;;;;0.90;0.55;;;;;;;13.55;100.00;99945.56;4982802;28;20050;-60
2022/12/31 08:45:28;;;;;;;0.57;0.57;;;;;;;13.60;100.00;99924.91;4987180;28;20058;-62
2022/12/31 08:48:36;;;;;;;0.77;0.40;;;;;;;13.63;100.00;99929.06;4985995;28;20461;-63
2022/12/31 08:51:04;;;;;;;4.88;0.63;;;;;;;13.67;99.99;99912.00;4944163;28;20077;-62
2022/12/31 08:53:31;;;;;;;1.83;0.52;;;;;;;13.73;99.54;99929.16;4929120;28;20142;-63
2022/12/31 08:56:10;;;;;;;0.47;0.45;;;;;;;13.78;99.31;99914.59;4970731;28;20065;-63
2022/12/31 08:58:50;;;;;;;1.40;0.50;;;;;;;13.81;99.25;99930.19;4988190;28;20097;-62
2022/12/31 09:01:23;;;;;;;0.80;0.60;;;;;;;13.85;98.80;99934.25;4989996;28;20610;-63
2022/12/31 09:04:04;;;;;;;0.98;0.60;;;;;;;13.88;98.84;99927.88;4992878;28;20176;-63
2022/12/31 09:06:35;;;;;;;0.57;0.40;;;;;;;13.90;97.81;99939.16;4988843;28;20054;-63
2022/12/31 09:09:26;;;;;;;1.25;0.57;;;;;;;13.97;97.29;99927.13;4990484;28;20058;-63
2022/12/31 09:12:20;;;;;;;1.80;0.47;;;;;;;14.03;96.67;99947.75;4988206;28;20047;-62
2022/12/31 09:14:54;;;;;;;0.95;0.50;;;;;;;14.08;96.57;99934.13;4989501;28;20410;-61
2022/12/31 09:17:21;;;;;;;0.45;0.40;;;;;;;14.15;96.25;99933.50;4989803;28;20155;-63
2022/12/31 09:19:49;;;;;;;2.03;0.60;;;;;;;14.14;96.24;99950.34;4986793;28;20054;-63
2022/12/31 09:22:16;;;;;;;1.45;0.70;;;;;;;14.23;95.86;99937.28;4992845;28;20407;-62
2022/12/31 09:24:43;;;;;;;1.05;0.70;;;;;;;14.27;95.46;99950.13;4990802;28;20050;-62
2022/12/31 09:27:23;;;;;;;1.25;0.60;;;;;;;14.34;95.59;99922.16;4988371;28;20066;-62
2022/12/31 09:30:02;;;;;;;1.00;0.60;;;;;;;14.39;95.17;99922.59;4989403;28;20571;-63
2022/12/31 09:32:49;;;;;;;2.00;0.77;;;;;;;14.51;94.21;99918.09;4987938;28;20062;-63
2022/12/31 09:35:39;;;;;;;0.93;0.60;;;;;;;14.61;94.51;99929.56;4983071;28;20050;-67
2022/12/31 09:38:18;;;;;;;1.33;0.87;;;;;;;14.69;94.15;99913.84;5002898;28;20056;-64
2022/12/31 09:41:04;;;;;;;1.77;0.80;;;;;;;14.75;93.53;99920.44;4988869;28;20058;-63
2022/12/31 09:44:09;;;;;;;6.05;4.05;;;;;;;14.81;92.87;99914.56;4987609;28;20050;-62
2022/12/31 09:46:54;;;;;;;3.15;1.88;;;;;;;14.86;92.38;99920.34;4988098;28;20058;-62
2022/12/31 09:49:59;;;;;;;1.85;0.68;;;;;;;14.88;91.97;99905.13;4992800;28;20126;-63
2022/12/31 09:52:46;;;;;;;1.90;0.70;;;;;;;14.94;91.99;99909.88;4990412;28;20056;-64
2022/12/31 09:55:34;;;;;;;0.93;0.50;;;;;;;14.97;91.85;99908.78;4991651;28;20060;-64
2022/12/31 09:58:26;;;;;;;1.65;0.60;;;;;;;15.07;92.21;99900.84;4987534;28;20105;-64
2022/12/31 10:01:04;;;;;;;0.50;0.40;;;;;;;15.12;90.89;99912.69;4986757;28;20156;-64
2022/12/31 10:03:46;;;;;;;2.35;1.55;;;;;;;15.22;90.51;99898.63;4986484;28;20050;-64
2022/12/31 10:06:38;;;;;;;1.75;0.98;;;;;;;15.30;90.74;99906.72;4989545;28;20452;-64
2022/12/31 10:09:20;;;;;;;0.95;0.60;;;;;;;15.33;89.06;99914.41;4988662;28;20144;-63
2022/12/31 10:12:00;;;;;;;1.20;0.70;;;;;;;15.37;90.03;99919.31;4992526;28;20058;-64
2022/12/31 10:15:02;;;;;;;1.50;0.70;;;;;;;15.39;89.18;99921.81;4986148;28;20152;-64
2022/12/31 10:17:41;;;;;;;1.13;0.70;;;;;;;15.45;89.21;99915.97;4985662;28;20064;-64
2022/12/31 10:20:40;;;;;;;1.23;0.65;;;;;;;15.45;89.85;99931.88;4991781;28;20562;-65
2022/12/31 10:23:23;;;;;;;1.55;0.75;;;;;;;15.48;89.01;99928.09;4948744;28;20157;-62
2022/12/31 10:26:24;;;;;;;0.88;0.50;;;;;;;15.56;88.03;99946.81;4986905;28;20422;-63
2022/12/31 10:29:01;;;;;;;3.22;0.80;;;;;;;15.56;88.39;99933.56;4985220;28;20069;-63
2022/12/31 10:31:34;;;;;;;2.65;0.40;;;;;;;15.66;87.24;99937.91;4987095;28;20077;-63
2022/12/31 10:34:02;;;;;;;7.57;0.70;;;;;;;15.60;87.22;99954.38;4983849;28;20601;-63
2022/12/31 10:36:53;;;;;;;1.92;0.93;;;;;;;15.66;87.57;99953.84;4987031;28;20070;-63
2022/12/31 10:40:02;;;;;;;1.80;0.65;;;;;;;15.65;87.91;99960.13;4987551;28;20046;-63
2022/12/31 10:43:02;;;;;;;2.45;0.50;;;;;;;15.68;87.15;99961.66;4977261;28;20051;-63
2022/12/31 10:45:54;;;;;;;2.20;0.60;;;;;;;15.67;87.60;99971.44;4986363;28;20170;-62
2022/12/31 10:49:03;;;;;;;0.73;0.50;;;;;;;15.68;87.93;99973.13;4982934;28;20064;-64
2022/12/31 10:52:06;;;;;;;2.05;0.70;;;;;;;15.69;87.92;99984.56;4985030;28;20080;-63
2022/12/31 10:54:54;;;;;;;2.60;0.77;;;;;;;15.72;88.14;99984.31;4983420;28;20054;-64
2022/12/31 10:57:49;;;;;;;2.38;0.65;;;;;;;15.68;89.22;99977.59;4980532;28;20156;-64
2022/12/31 11:00:19;;;;;;;1.80;0.80;;;;;;;15.62;90.64;99994.00;4987662;28;20521;-64
2022/12/31 11:03:12;;;;;;;4.05;0.95;;;;;;;15.52;91.25;99994.00;4986747;28;20136;-64
2022/12/31 11:06:00;;;;;;;1.02;0.40;;;;;;;15.49;91.27;99991.66;4987177;28;20145;-64
2022/12/31 11:09:12;;;;;;;0.88;0.47;;;;;;;15.46;91.31;99997.22;4984368;28;20050;-66
2022/12/31 11:12:00;;;;;;;1.65;0.70;;;;;;;15.53;90.90;100003.63;4940542;28;20065;-63
2022/12/31 11:15:15;;;;;;;5.40;0.90;;;;;;;15.54;90.92;99999.19;4961045;28;20137;-65
2022/12/31 11:18:21;;;;;;;2.20;0.73;;;;;;;15.49;90.88;100001.41;4977474;28;20525;-64
2022/12/31 11:20:59;;;;;;;1.80;0.57;;;;;;;15.49;91.47;100007.56;4987341;28;20064;-65
2022/12/31 11:23:33;;;;;;;3.75;0.80;;;;;;;15.52;90.96;100001.13;4986789;28;20038;-65
2022/12/31 11:26:32;;;;;;;0.70;0.50;;;;;;;15.53;90.73;99995.69;4982225;28;20133;-64
2022/12/31 11:29:21;;;;;;;1.75;0.70;;;;;;;15.66;89.39;99993.63;4986572;28;20062;-64
2022/12/31 11:32:04;;;;;;;2.28;0.70;;;;;;;15.70;89.43;99996.84;4987058;28;20054;-64
2022/12/31 11:35:01;;;;;;;1.30;0.43;;;;;;;15.68;89.89;100001.47;4988089;28;20134;-64
2022/12/31 11:37:47;;;;;;;1.98;0.90;;;;;;;15.69;89.76;100011.94;4994117;28;20050;-64
2022/12/31 11:40:26;;;;;;;1.23;0.60;;;;;;;15.71;89.78;99987.91;4988216;28;20133;-64
2022/12/31 11:42:54;;;;;;;1.63;0.45;;;;;;;15.74;89.10;99981.50;4992284;28;20062;-64
2022/12/31 11:45:28;;;;;;;2.35;0.70;;;;;;;15.79;88.92;99966.00;4983933;28;20065;-64
2022/12/31 11:48:07;;;;;;;2.30;0.65;;;;;;;15.87;88.66;99963.47;4984438;28;20503;-63
2022/12/31 11:51:05;;;;;;;2.70;0.82;;;;;;;16.06;86.93;99968.75;4973174;28;20141;-64
2022/12/31 11:54:00;;;;;;;3.00;0.95;;;;;;;16.18;86.13;99970.28;4984666;28;20145;-64
2022/12/31 11:56:37;;;;;;;2.05;0.93;;;;;;;16.19;85.54;99960.50;4985347;28;20050;-64
2022/12/31 11:59:11;;;;;;;2.08;0.70;;;;;;;16.32;84.37;99966.34;4988972;28;20064;-63
2022/12/31 12:02:03;;;;;;;2.13;0.85;;;;;;;16.29;84.72;99955.16;4980340;28;20051;-63
2022/12/31 12:04:30;;;;;;;3.00;0.70;;;;;;;16.26;84.02;99969.59;4981226;28;20408;-63
2022/12/31 12:06:58;;;;;;;3.17;1.05;;;;;;;16.26;85.06;99979.38;4987511;28;20137;-64
2022/12/31 12:09:30;;;;;;;1.88;0.75;;;;;;;16.25;84.04;99962.56;4980411;28;20069;-63
2022/12/31 12:12:02;;;;;;;3.70;0.80;;;;;;;16.29;84.38;99968.44;4983940;28;20419;-64
2022/12/31 12:14:34;;;;;;;2.95;0.90;;;;;;;16.36;83.64;99970.41;4984024;28;20135;-64
2022/12/31 12:17:05;;;;;;;1.92;0.80;;;;;;;16.38;82.56;99965.75;4983990;28;20106;-63
2022/12/31 12:19:34;;;;;;;1.33;0.65;;;;;;;16.46;82.94;99988.97;4981565;28;20684;-63